sensor_id;sensor_type;location;lat;lon;timestamp;temperature;humidity
39401;DHT22;54391;50.000;7.360;2023-05-07T00:02:28;13.10;41.10
39401;DHT22;54391;50.000;7.360;2023-05-07T00:04:55;13.10;42.00
39401;DHT22;54391;50.000;7.360;2023-05-07T00:07:22;13.10;41.90
39401;DHT22;54391;50.000;7.360;2023-05-07T00:09:49;13.10;42.50
39401;DHT22;54391;50.000;7.360;2023-05-07T00:12:16;13.20;41.60
39401;DHT22;54391;50.000;7.360;2023-05-07T00:17:12;13.10;41.80
39401;DHT22;54391;50.000;7.360;2023-05-07T00:22:07;13.20;41.60
39401;DHT22;54391;50.000;7.360;2023-05-07T00:24:34;13.10;41.40
39401;DHT22;54391;50.000;7.360;2023-05-07T00:27:01;13.10;41.70
39401;DHT22;54391;50.000;7.360;2023-05-07T00:29:29;13.10;41.20
39401;DHT22;54391;50.000;7.360;2023-05-07T00:31:57;13.00;40.90
39401;DHT22;54391;50.000;7.360;2023-05-07T00:34:24;12.30;40.80
39401;DHT22;54391;50.000;7.360;2023-05-07T00:36:51;12.90;41.70
39401;DHT22;54391;50.000;7.360;2023-05-07T00:44:14;12.70;44.00
39401;DHT22;54391;50.000;7.360;2023-05-07T00:46:41;12.70;44.30
39401;DHT22;54391;50.000;7.360;2023-05-07T00:51:40;12.80;44.30
39401;DHT22;54391;50.000;7.360;2023-05-07T00:54:08;12.70;44.40
39401;DHT22;54391;50.000;7.360;2023-05-07T00:59:05;12.70;43.90
39401;DHT22;54391;50.000;7.360;2023-05-07T01:01:33;12.80;43.30
39401;DHT22;54391;50.000;7.360;2023-05-07T01:04:00;12.80;43.50
39401;DHT22;54391;50.000;7.360;2023-05-07T01:06:30;12.80;42.80
39401;DHT22;54391;50.000;7.360;2023-05-07T01:08:58;12.90;42.20
39401;DHT22;54391;50.000;7.360;2023-05-07T01:11:28;12.90;41.90
39401;DHT22;54391;50.000;7.360;2023-05-07T01:13:56;12.90;41.60
39401;DHT22;54391;50.000;7.360;2023-05-07T01:21:18;12.80;41.00
39401;DHT22;54391;50.000;7.360;2023-05-07T01:23:57;12.90;41.40
39401;DHT22;54391;50.000;7.360;2023-05-07T01:31:19;12.80;40.60
39401;DHT22;54391;50.000;7.360;2023-05-07T01:33:48;12.70;40.80
39401;DHT22;54391;50.000;7.360;2023-05-07T01:36:18;12.80;41.00
39401;DHT22;54391;50.000;7.360;2023-05-07T01:38:47;12.70;41.20
39401;DHT22;54391;50.000;7.360;2023-05-07T01:43:43;12.80;41.30
39401;DHT22;54391;50.000;7.360;2023-05-07T01:46:10;12.70;41.60
39401;DHT22;54391;50.000;7.360;2023-05-07T01:48:39;12.70;41.60
39401;DHT22;54391;50.000;7.360;2023-05-07T01:51:06;12.70;41.60
39401;DHT22;54391;50.000;7.360;2023-05-07T01:53:38;12.70;41.90
39401;DHT22;54391;50.000;7.360;2023-05-07T01:56:06;12.60;42.30
39401;DHT22;54391;50.000;7.360;2023-05-07T01:58:37;12.60;42.00
39401;DHT22;54391;50.000;7.360;2023-05-07T02:01:04;12.60;42.00
39401;DHT22;54391;50.000;7.360;2023-05-07T02:03:32;12.50;42.30
39401;DHT22;54391;50.000;7.360;2023-05-07T02:06:07;12.50;41.90
39401;DHT22;54391;50.000;7.360;2023-05-07T02:08:37;12.50;41.90
39401;DHT22;54391;50.000;7.360;2023-05-07T02:13:33;12.50;42.30
39401;DHT22;54391;50.000;7.360;2023-05-07T02:16:01;12.40;42.70
39401;DHT22;54391;50.000;7.360;2023-05-07T02:18:29;12.40;43.30
39401;DHT22;54391;50.000;7.360;2023-05-07T02:20:56;12.40;43.10
39401;DHT22;54391;50.000;7.360;2023-05-07T02:23:23;12.40;43.40
39401;DHT22;54391;50.000;7.360;2023-05-07T02:28:18;12.40;43.90
39401;DHT22;54391;50.000;7.360;2023-05-07T02:31:06;12.40;43.90
39401;DHT22;54391;50.000;7.360;2023-05-07T02:33:34;12.30;43.90
39401;DHT22;54391;50.000;7.360;2023-05-07T02:36:08;12.30;44.30
39401;DHT22;54391;50.000;7.360;2023-05-07T02:38:40;12.30;44.80
39401;DHT22;54391;50.000;7.360;2023-05-07T02:41:07;12.20;45.50
39401;DHT22;54391;50.000;7.360;2023-05-07T02:43:34;12.20;45.60
39401;DHT22;54391;50.000;7.360;2023-05-07T02:46:02;12.20;46.10
39401;DHT22;54391;50.000;7.360;2023-05-07T02:48:31;12.20;46.10
39401;DHT22;54391;50.000;7.360;2023-05-07T02:50:59;12.20;46.60
39401;DHT22;54391;50.000;7.360;2023-05-07T02:55:56;12.20;46.20
39401;DHT22;54391;50.000;7.360;2023-05-07T02:58:24;12.20;46.20
39401;DHT22;54391;50.000;7.360;2023-05-07T03:00:51;12.10;46.10
39401;DHT22;54391;50.000;7.360;2023-05-07T03:05:56;12.10;45.20
39401;DHT22;54391;50.000;7.360;2023-05-07T03:08:23;12.10;45.10
39401;DHT22;54391;50.000;7.360;2023-05-07T03:10:50;12.20;45.50
39401;DHT22;54391;50.000;7.360;2023-05-07T03:13:17;12.20;45.30
39401;DHT22;54391;50.000;7.360;2023-05-07T03:15:45;12.20;44.60
39401;DHT22;54391;50.000;7.360;2023-05-07T03:18:12;12.30;44.30
39401;DHT22;54391;50.000;7.360;2023-05-07T03:20:39;12.30;43.70
39401;DHT22;54391;50.000;7.360;2023-05-07T03:23:08;12.30;43.30
39401;DHT22;54391;50.000;7.360;2023-05-07T03:25:35;12.30;43.30
39401;DHT22;54391;50.000;7.360;2023-05-07T03:33:05;12.30;43.40
39401;DHT22;54391;50.000;7.360;2023-05-07T03:38:00;12.30;44.60
39401;DHT22;54391;50.000;7.360;2023-05-07T03:40:32;12.30;43.20
39401;DHT22;54391;50.000;7.360;2023-05-07T03:43:00;12.20;43.40
39401;DHT22;54391;50.000;7.360;2023-05-07T03:48:06;12.20;44.10
39401;DHT22;54391;50.000;7.360;2023-05-07T03:50:33;12.20;44.10
39401;DHT22;54391;50.000;7.360;2023-05-07T03:55:31;12.20;44.30
39401;DHT22;54391;50.000;7.360;2023-05-07T03:58:00;12.20;44.60
39401;DHT22;54391;50.000;7.360;2023-05-07T04:00:28;12.20;44.50
39401;DHT22;54391;50.000;7.360;2023-05-07T04:02:59;12.20;44.40
39401;DHT22;54391;50.000;7.360;2023-05-07T04:05:30;12.20;44.50
39401;DHT22;54391;50.000;7.360;2023-05-07T04:10:38;12.20;44.40
39401;DHT22;54391;50.000;7.360;2023-05-07T04:13:10;12.20;44.50
39401;DHT22;54391;50.000;7.360;2023-05-07T04:15:37;12.20;44.60
39401;DHT22;54391;50.000;7.360;2023-05-07T04:18:08;12.30;44.50
39401;DHT22;54391;50.000;7.360;2023-05-07T04:20:36;12.30;43.70
39401;DHT22;54391;50.000;7.360;2023-05-07T04:23:07;12.40;43.40
39401;DHT22;54391;50.000;7.360;2023-05-07T04:25:35;12.40;43.10
39401;DHT22;54391;50.000;7.360;2023-05-07T04:28:12;12.40;42.00
39401;DHT22;54391;50.000;7.360;2023-05-07T04:30:40;12.60;41.90
39401;DHT22;54391;50.000;7.360;2023-05-07T04:33:08;12.40;40.70
39401;DHT22;54391;50.000;7.360;2023-05-07T04:35:36;12.60;39.90
39401;DHT22;54391;50.000;7.360;2023-05-07T04:38:05;12.70;39.10
39401;DHT22;54391;50.000;7.360;2023-05-07T04:40:33;12.70;38.70
39401;DHT22;54391;50.000;7.360;2023-05-07T04:43:02;12.80;38.10
39401;DHT22;54391;50.000;7.360;2023-05-07T04:45:34;12.80;37.70
39401;DHT22;54391;50.000;7.360;2023-05-07T04:48:02;12.90;36.90
39401;DHT22;54391;50.000;7.360;2023-05-07T04:50:31;12.90;37.10
39401;DHT22;54391;50.000;7.360;2023-05-07T04:53:01;13.00;37.10
39401;DHT22;54391;50.000;7.360;2023-05-07T04:55:29;13.00;36.40
39401;DHT22;54391;50.000;7.360;2023-05-07T04:57:56;13.20;36.10
39401;DHT22;54391;50.000;7.360;2023-05-07T05:00:23;13.20;35.30
39401;DHT22;54391;50.000;7.360;2023-05-07T05:02:54;13.30;34.70
39401;DHT22;54391;50.000;7.360;2023-05-07T05:07:52;13.60;33.10
39401;DHT22;54391;50.000;7.360;2023-05-07T05:10:20;13.70;31.90
39401;DHT22;54391;50.000;7.360;2023-05-07T05:15:16;13.80;31.60
39401;DHT22;54391;50.000;7.360;2023-05-07T05:17:43;13.90;31.20
39401;DHT22;54391;50.000;7.360;2023-05-07T05:20:12;13.80;31.00
39401;DHT22;54391;50.000;7.360;2023-05-07T05:22:41;13.90;31.60
39401;DHT22;54391;50.000;7.360;2023-05-07T05:25:09;13.90;31.30
39401;DHT22;54391;50.000;7.360;2023-05-07T05:27:36;13.90;31.30
39401;DHT22;54391;50.000;7.360;2023-05-07T05:30:05;13.90;31.70
39401;DHT22;54391;50.000;7.360;2023-05-07T05:32:34;14.00;31.50
39401;DHT22;54391;50.000;7.360;2023-05-07T05:35:01;14.10;31.40
39401;DHT22;54391;50.000;7.360;2023-05-07T05:40:00;13.90;29.50
39401;DHT22;54391;50.000;7.360;2023-05-07T05:42:29;14.20;29.80
39401;DHT22;54391;50.000;7.360;2023-05-07T05:47:24;14.30;30.40
39401;DHT22;54391;50.000;7.360;2023-05-07T05:49:54;14.40;29.60
39401;DHT22;54391;50.000;7.360;2023-05-07T05:52:21;14.70;29.10
39401;DHT22;54391;50.000;7.360;2023-05-07T05:57:19;15.00;26.90
39401;DHT22;54391;50.000;7.360;2023-05-07T05:59:46;15.10;25.80
39401;DHT22;54391;50.000;7.360;2023-05-07T06:02:14;15.20;25.50
39401;DHT22;54391;50.000;7.360;2023-05-07T06:12:06;15.20;25.00
39401;DHT22;54391;50.000;7.360;2023-05-07T06:17:02;15.10;26.20
39401;DHT22;54391;50.000;7.360;2023-05-07T06:19:29;15.20;26.70
39401;DHT22;54391;50.000;7.360;2023-05-07T06:21:58;15.10;27.30
39401;DHT22;54391;50.000;7.360;2023-05-07T06:24:29;15.10;27.60
39401;DHT22;54391;50.000;7.360;2023-05-07T06:26:56;15.10;27.20
39401;DHT22;54391;50.000;7.360;2023-05-07T06:29:27;14.90;27.50
39401;DHT22;54391;50.000;7.360;2023-05-07T06:31:56;14.70;28.60
39401;DHT22;54391;50.000;7.360;2023-05-07T06:34:23;14.70;30.80
39401;DHT22;54391;50.000;7.360;2023-05-07T06:39:30;14.70;31.10
39401;DHT22;54391;50.000;7.360;2023-05-07T06:44:31;14.80;27.10
39401;DHT22;54391;50.000;7.360;2023-05-07T06:47:05;15.00;26.80
39401;DHT22;54391;50.000;7.360;2023-05-07T06:49:33;15.00;26.40
39401;DHT22;54391;50.000;7.360;2023-05-07T06:52:00;15.20;25.90
39401;DHT22;54391;50.000;7.360;2023-05-07T06:54:28;15.30;25.50
39401;DHT22;54391;50.000;7.360;2023-05-07T06:56:56;15.40;24.70
39401;DHT22;54391;50.000;7.360;2023-05-07T06:59:25;15.60;24.00
39401;DHT22;54391;50.000;7.360;2023-05-07T07:01:54;15.60;23.20
39401;DHT22;54391;50.000;7.360;2023-05-07T07:16:51;19.30;6.90
39401;DHT22;54391;50.000;7.360;2023-05-07T07:21:51;18.70;5.30
39401;DHT22;54391;50.000;7.360;2023-05-07T07:24:18;18.70;5.50
39401;DHT22;54391;50.000;7.360;2023-05-07T07:26:49;20.00;1.70
39401;DHT22;54391;50.000;7.360;2023-05-07T07:29:18;20.70;1.00
39401;DHT22;54391;50.000;7.360;2023-05-07T07:34:13;20.80;1.00
39401;DHT22;54391;50.000;7.360;2023-05-07T07:36:43;19.80;1.00
39401;DHT22;54391;50.000;7.360;2023-05-07T07:39:10;19.70;1.70
39401;DHT22;54391;50.000;7.360;2023-05-07T07:41:37;19.60;1.00
39401;DHT22;54391;50.000;7.360;2023-05-07T07:46:35;20.40;1.00
39401;DHT22;54391;50.000;7.360;2023-05-07T07:56:32;20.60;1.00
39401;DHT22;54391;50.000;7.360;2023-05-07T08:16:21;20.30;1.00
39401;DHT22;54391;50.000;7.360;2023-05-07T08:21:16;20.00;1.00
39401;DHT22;54391;50.000;7.360;2023-05-07T08:46:13;19.70;2.10
39401;DHT22;54391;50.000;7.360;2023-05-07T09:01:13;19.30;2.40
39401;DHT22;54391;50.000;7.360;2023-05-07T09:03:44;19.10;5.40
39401;DHT22;54391;50.000;7.360;2023-05-07T09:21:15;19.60;3.30
39401;DHT22;54391;50.000;7.360;2023-05-07T09:31:11;20.20;1.00
39401;DHT22;54391;50.000;7.360;2023-05-07T09:33:38;20.30;1.00
39401;DHT22;54391;50.000;7.360;2023-05-07T09:36:09;20.40;1.00
39401;DHT22;54391;50.000;7.360;2023-05-07T09:38:39;20.60;1.00
39401;DHT22;54391;50.000;7.360;2023-05-07T09:41:08;20.80;1.00
39401;DHT22;54391;50.000;7.360;2023-05-07T09:43:56;20.80;1.00
39401;DHT22;54391;50.000;7.360;2023-05-07T09:46:30;21.00;1.00
39401;DHT22;54391;50.000;7.360;2023-05-07T09:49:02;21.00;1.00
39401;DHT22;54391;50.000;7.360;2023-05-07T09:51:38;21.60;1.00
39401;DHT22;54391;50.000;7.360;2023-05-07T09:54:07;21.90;1.00
39401;DHT22;54391;50.000;7.360;2023-05-07T09:56:37;21.80;1.00
39401;DHT22;54391;50.000;7.360;2023-05-07T09:59:05;21.70;1.00
39401;DHT22;54391;50.000;7.360;2023-05-07T10:01:36;21.60;1.00
39401;DHT22;54391;50.000;7.360;2023-05-07T10:06:34;21.30;1.00
39401;DHT22;54391;50.000;7.360;2023-05-07T10:09:02;21.10;1.00
39401;DHT22;54391;50.000;7.360;2023-05-07T10:11:32;21.30;1.00
39401;DHT22;54391;50.000;7.360;2023-05-07T10:14:00;21.20;1.00
39401;DHT22;54391;50.000;7.360;2023-05-07T10:16:31;21.30;1.00
39401;DHT22;54391;50.000;7.360;2023-05-07T10:19:03;21.80;1.00
39401;DHT22;54391;50.000;7.360;2023-05-07T10:21:31;21.70;1.00
39401;DHT22;54391;50.000;7.360;2023-05-07T10:24:08;22.00;1.00
39401;DHT22;54391;50.000;7.360;2023-05-07T10:26:42;21.50;1.00
39401;DHT22;54391;50.000;7.360;2023-05-07T10:29:14;21.30;1.00
39401;DHT22;54391;50.000;7.360;2023-05-07T10:31:55;21.20;1.00
39401;DHT22;54391;50.000;7.360;2023-05-07T10:34:29;21.00;1.00
39401;DHT22;54391;50.000;7.360;2023-05-07T10:36:59;21.10;1.00
39401;DHT22;54391;50.000;7.360;2023-05-07T10:39:29;21.40;1.00
39401;DHT22;54391;50.000;7.360;2023-05-07T10:42:07;21.70;1.00
39401;DHT22;54391;50.000;7.360;2023-05-07T10:44:35;21.40;1.00
39401;DHT22;54391;50.000;7.360;2023-05-07T10:47:08;21.50;1.00
39401;DHT22;54391;50.000;7.360;2023-05-07T10:52:43;21.80;1.00
39401;DHT22;54391;50.000;7.360;2023-05-07T10:58:23;21.70;1.00
39401;DHT22;54391;50.000;7.360;2023-05-07T11:00:57;22.20;1.00
39401;DHT22;54391;50.000;7.360;2023-05-07T11:03:30;22.50;1.00
39401;DHT22;54391;50.000;7.360;2023-05-07T11:06:12;22.90;1.00
39401;DHT22;54391;50.000;7.360;2023-05-07T11:09:00;23.40;1.00
39401;DHT22;54391;50.000;7.360;2023-05-07T11:11:47;23.20;1.00
39401;DHT22;54391;50.000;7.360;2023-05-07T11:14:46;23.10;1.00
39401;DHT22;54391;50.000;7.360;2023-05-07T11:17:17;23.00;1.00
39401;DHT22;54391;50.000;7.360;2023-05-07T11:22:41;23.50;1.00
39401;DHT22;54391;50.000;7.360;2023-05-07T11:25:35;23.60;1.00
39401;DHT22;54391;50.000;7.360;2023-05-07T11:33:17;23.10;1.00
39401;DHT22;54391;50.000;7.360;2023-05-07T11:35:47;22.80;1.00
39401;DHT22;54391;50.000;7.360;2023-05-07T11:43:19;22.50;1.00
39401;DHT22;54391;50.000;7.360;2023-05-07T11:45:47;22.50;1.00
39401;DHT22;54391;50.000;7.360;2023-05-07T11:48:15;22.50;1.00
39401;DHT22;54391;50.000;7.360;2023-05-07T11:50:50;22.30;1.00
39401;DHT22;54391;50.000;7.360;2023-05-07T11:53:18;22.00;1.00
39401;DHT22;54391;50.000;7.360;2023-05-07T11:55:45;21.50;1.00
39401;DHT22;54391;50.000;7.360;2023-05-07T11:58:22;21.50;1.00
39401;DHT22;54391;50.000;7.360;2023-05-07T12:00:49;21.10;1.00
39401;DHT22;54391;50.000;7.360;2023-05-07T12:05:44;20.90;1.00
39401;DHT22;54391;50.000;7.360;2023-05-07T12:08:13;20.80;1.00
39401;DHT22;54391;50.000;7.360;2023-05-07T12:10:41;20.80;1.00
39401;DHT22;54391;50.000;7.360;2023-05-07T12:13:14;20.70;1.00
39401;DHT22;54391;50.000;7.360;2023-05-07T12:18:11;20.40;1.00
39401;DHT22;54391;50.000;7.360;2023-05-07T12:20:39;20.40;1.00
39401;DHT22;54391;50.000;7.360;2023-05-07T12:23:07;20.50;1.00
39401;DHT22;54391;50.000;7.360;2023-05-07T12:25:34;20.40;1.00
39401;DHT22;54391;50.000;7.360;2023-05-07T12:28:02;20.50;1.00
39401;DHT22;54391;50.000;7.360;2023-05-07T12:35:27;21.00;1.00
39401;DHT22;54391;50.000;7.360;2023-05-07T12:37:55;21.10;1.00
39401;DHT22;54391;50.000;7.360;2023-05-07T12:42:53;21.30;1.00
39401;DHT22;54391;50.000;7.360;2023-05-07T12:45:21;21.50;1.00
39401;DHT22;54391;50.000;7.360;2023-05-07T12:47:48;21.40;1.00
39401;DHT22;54391;50.000;7.360;2023-05-07T12:52:45;21.30;1.00
39401;DHT22;54391;50.000;7.360;2023-05-07T12:55:14;21.50;1.00
39401;DHT22;54391;50.000;7.360;2023-05-07T12:57:43;21.50;1.00
39401;DHT22;54391;50.000;7.360;2023-05-07T13:00:11;21.40;1.00
39401;DHT22;54391;50.000;7.360;2023-05-07T13:02:39;21.40;1.00
39401;DHT22;54391;50.000;7.360;2023-05-07T13:05:08;21.50;1.00
39401;DHT22;54391;50.000;7.360;2023-05-07T13:07:36;21.20;1.00
39401;DHT22;54391;50.000;7.360;2023-05-07T13:10:04;21.20;1.00
39401;DHT22;54391;50.000;7.360;2023-05-07T13:12:31;21.30;1.00
39401;DHT22;54391;50.000;7.360;2023-05-07T13:14:58;21.50;1.00
39401;DHT22;54391;50.000;7.360;2023-05-07T13:17:28;21.50;1.00
39401;DHT22;54391;50.000;7.360;2023-05-07T13:19:56;21.40;1.00
39401;DHT22;54391;50.000;7.360;2023-05-07T13:27:20;21.50;1.00
39401;DHT22;54391;50.000;7.360;2023-05-07T13:29:47;21.50;1.00
39401;DHT22;54391;50.000;7.360;2023-05-07T13:32:14;21.60;1.00
39401;DHT22;54391;50.000;7.360;2023-05-07T13:39:36;21.00;1.00
39401;DHT22;54391;50.000;7.360;2023-05-07T13:49:28;21.50;1.00
39401;DHT22;54391;50.000;7.360;2023-05-07T13:51:55;21.50;1.00
39401;DHT22;54391;50.000;7.360;2023-05-07T13:54:23;21.30;1.00
39401;DHT22;54391;50.000;7.360;2023-05-07T13:56:50;21.40;1.00
39401;DHT22;54391;50.000;7.360;2023-05-07T14:01:46;21.20;1.00
39401;DHT22;54391;50.000;7.360;2023-05-07T14:04:13;21.10;1.00
39401;DHT22;54391;50.000;7.360;2023-05-07T14:11:37;20.90;1.00
39401;DHT22;54391;50.000;7.360;2023-05-07T14:19:01;20.20;1.00
39401;DHT22;54391;50.000;7.360;2023-05-07T14:26:24;19.90;1.00
39401;DHT22;54391;50.000;7.360;2023-05-07T14:28:53;19.80;1.00
39401;DHT22;54391;50.000;7.360;2023-05-07T14:31:23;19.80;1.00
39401;DHT22;54391;50.000;7.360;2023-05-07T14:36:19;19.60;1.00
39401;DHT22;54391;50.000;7.360;2023-05-07T14:41:15;19.40;2.10
39401;DHT22;54391;50.000;7.360;2023-05-07T14:43:44;19.30;2.70
39401;DHT22;54391;50.000;7.360;2023-05-07T14:46:16;19.20;5.50
39401;DHT22;54391;50.000;7.360;2023-05-07T14:48:43;19.10;6.80
39401;DHT22;54391;50.000;7.360;2023-05-07T14:53:41;19.00;8.80
39401;DHT22;54391;50.000;7.360;2023-05-07T14:56:08;18.90;8.40
39401;DHT22;54391;50.000;7.360;2023-05-07T14:58:35;18.90;8.80
39401;DHT22;54391;50.000;7.360;2023-05-07T15:01:03;19.00;10.50
39401;DHT22;54391;50.000;7.360;2023-05-07T15:10:56;18.60;12.90
39401;DHT22;54391;50.000;7.360;2023-05-07T15:20:46;17.20;21.50
39401;DHT22;54391;50.000;7.360;2023-05-07T15:23:13;17.00;23.50
39401;DHT22;54391;50.000;7.360;2023-05-07T15:28:12;16.20;31.40
39401;DHT22;54391;50.000;7.360;2023-05-07T15:30:39;15.70;35.40
39401;DHT22;54391;50.000;7.360;2023-05-07T15:33:06;15.30;39.90
39401;DHT22;54391;50.000;7.360;2023-05-07T15:35:33;15.20;41.90
39401;DHT22;54391;50.000;7.360;2023-05-07T15:40:29;14.80;47.40
39401;DHT22;54391;50.000;7.360;2023-05-07T15:42:58;14.60;58.10
39401;DHT22;54391;50.000;7.360;2023-05-07T15:45:28;14.10;81.20
39401;DHT22;54391;50.000;7.360;2023-05-07T15:47:55;13.60;93.70
39401;DHT22;54391;50.000;7.360;2023-05-07T15:50:22;13.20;94.60
39401;DHT22;54391;50.000;7.360;2023-05-07T15:52:49;13.10;93.10
39401;DHT22;54391;50.000;7.360;2023-05-07T15:55:16;13.00;92.50
39401;DHT22;54391;50.000;7.360;2023-05-07T15:57:43;15.40;89.10
39401;DHT22;54391;50.000;7.360;2023-05-07T16:00:14;8.90;91.90
39401;DHT22;54391;50.000;7.360;2023-05-07T16:05:13;12.90;83.40
39401;DHT22;54391;50.000;7.360;2023-05-07T16:07:41;12.90;91.30
39401;DHT22;54391;50.000;7.360;2023-05-07T16:10:10;12.90;95.30
39401;DHT22;54391;50.000;7.360;2023-05-07T16:12:37;12.90;97.80
39401;DHT22;54391;50.000;7.360;2023-05-07T16:15:05;12.80;99.50
39401;DHT22;54391;50.000;7.360;2023-05-07T16:20:02;12.90;99.90
39401;DHT22;54391;50.000;7.360;2023-05-07T16:29:54;13.00;99.90
39401;DHT22;54391;50.000;7.360;2023-05-07T16:37:17;13.00;99.90
39401;DHT22;54391;50.000;7.360;2023-05-07T16:44:40;13.10;99.90
39401;DHT22;54391;50.000;7.360;2023-05-07T16:47:07;13.20;99.90
39401;DHT22;54391;50.000;7.360;2023-05-07T16:59:26;13.50;99.90
39401;DHT22;54391;50.000;7.360;2023-05-07T17:01:56;13.80;99.90
39401;DHT22;54391;50.000;7.360;2023-05-07T17:04:24;13.90;99.90
39401;DHT22;54391;50.000;7.360;2023-05-07T17:11:47;14.00;99.90
39401;DHT22;54391;50.000;7.360;2023-05-07T17:14:14;14.10;99.90
39401;DHT22;54391;50.000;7.360;2023-05-07T17:19:09;13.80;99.90
39401;DHT22;54391;50.000;7.360;2023-05-07T17:24:04;13.80;97.00
39401;DHT22;54391;50.000;7.360;2023-05-07T17:26:32;13.80;95.80
39401;DHT22;54391;50.000;7.360;2023-05-07T17:38:51;13.90;98.00
39401;DHT22;54391;50.000;7.360;2023-05-07T17:41:18;13.90;99.70
39401;DHT22;54391;50.000;7.360;2023-05-07T17:43:47;13.80;97.80
39401;DHT22;54391;50.000;7.360;2023-05-07T17:46:14;13.80;97.90
39401;DHT22;54391;50.000;7.360;2023-05-07T17:51:10;13.80;99.60
39401;DHT22;54391;50.000;7.360;2023-05-07T17:53:38;13.90;99.90
39401;DHT22;54391;50.000;7.360;2023-05-07T17:56:05;13.90;99.50
39401;DHT22;54391;50.000;7.360;2023-05-07T18:13:23;13.90;99.90
39401;DHT22;54391;50.000;7.360;2023-05-07T18:20:48;13.70;99.90
39401;DHT22;54391;50.000;7.360;2023-05-07T18:25:43;13.70;99.90
39401;DHT22;54391;50.000;7.360;2023-05-07T18:30:37;13.70;99.90
39401;DHT22;54391;50.000;7.360;2023-05-07T18:33:05;13.60;99.90
39401;DHT22;54391;50.000;7.360;2023-05-07T18:38:02;13.50;99.90
39401;DHT22;54391;50.000;7.360;2023-05-07T18:40:29;13.50;99.90
39401;DHT22;54391;50.000;7.360;2023-05-07T18:42:56;13.50;99.90
39401;DHT22;54391;50.000;7.360;2023-05-07T18:45:24;13.50;99.90
39401;DHT22;54391;50.000;7.360;2023-05-07T18:52:47;13.50;99.90
39401;DHT22;54391;50.000;7.360;2023-05-07T18:55:15;13.50;99.90
39401;DHT22;54391;50.000;7.360;2023-05-07T18:57:43;13.50;99.90
39401;DHT22;54391;50.000;7.360;2023-05-07T19:00:13;13.50;99.90
39401;DHT22;54391;50.000;7.360;2023-05-07T19:02:40;13.50;99.90
39401;DHT22;54391;50.000;7.360;2023-05-07T19:05:08;13.50;99.90
39401;DHT22;54391;50.000;7.360;2023-05-07T19:07:35;13.60;99.90
39401;DHT22;54391;50.000;7.360;2023-05-07T19:10:05;13.60;99.90
39401;DHT22;54391;50.000;7.360;2023-05-07T19:12:32;13.60;99.90
39401;DHT22;54391;50.000;7.360;2023-05-07T19:14:59;13.60;99.90
39401;DHT22;54391;50.000;7.360;2023-05-07T19:17:29;13.60;99.90
39401;DHT22;54391;50.000;7.360;2023-05-07T19:22:24;13.60;99.90
39401;DHT22;54391;50.000;7.360;2023-05-07T19:24:52;13.60;99.90
39401;DHT22;54391;50.000;7.360;2023-05-07T19:27:20;13.70;99.90
39401;DHT22;54391;50.000;7.360;2023-05-07T19:32:15;13.70;99.90
39401;DHT22;54391;50.000;7.360;2023-05-07T19:37:09;13.50;99.90
39401;DHT22;54391;50.000;7.360;2023-05-07T19:42:04;13.40;99.90
39401;DHT22;54391;50.000;7.360;2023-05-07T19:47:00;13.50;99.90
39401;DHT22;54391;50.000;7.360;2023-05-07T19:56:54;13.50;99.90
39401;DHT22;54391;50.000;7.360;2023-05-07T19:59:21;13.50;99.90
39401;DHT22;54391;50.000;7.360;2023-05-07T20:01:50;13.50;99.90
39401;DHT22;54391;50.000;7.360;2023-05-07T20:04:17;13.50;99.90
39401;DHT22;54391;50.000;7.360;2023-05-07T20:06:44;13.50;99.90
39401;DHT22;54391;50.000;7.360;2023-05-07T20:09:12;13.40;99.90
39401;DHT22;54391;50.000;7.360;2023-05-07T20:11:39;13.40;99.90
39401;DHT22;54391;50.000;7.360;2023-05-07T20:14:06;13.30;99.90
39401;DHT22;54391;50.000;7.360;2023-05-07T20:31:20;13.50;99.90
39401;DHT22;54391;50.000;7.360;2023-05-07T20:38:45;13.10;99.90
39401;DHT22;54391;50.000;7.360;2023-05-07T20:41:12;13.40;99.90
39401;DHT22;54391;50.000;7.360;2023-05-07T20:43:39;13.30;99.90
39401;DHT22;54391;50.000;7.360;2023-05-07T20:46:06;13.30;99.90
39401;DHT22;54391;50.000;7.360;2023-05-07T20:51:01;13.30;99.90
39401;DHT22;54391;50.000;7.360;2023-05-07T20:53:31;13.30;99.90
39401;DHT22;54391;50.000;7.360;2023-05-07T20:58:27;13.30;99.90
39401;DHT22;54391;50.000;7.360;2023-05-07T21:00:55;13.40;99.90
39401;DHT22;54391;50.000;7.360;2023-05-07T21:03:22;13.50;99.90
39401;DHT22;54391;50.000;7.360;2023-05-07T21:05:50;13.40;99.90
39401;DHT22;54391;50.000;7.360;2023-05-07T21:08:18;13.50;99.90
39401;DHT22;54391;50.000;7.360;2023-05-07T21:10:46;13.60;99.90
39401;DHT22;54391;50.000;7.360;2023-05-07T21:13:14;13.40;99.90
39401;DHT22;54391;50.000;7.360;2023-05-07T21:20:37;13.40;99.90
39401;DHT22;54391;50.000;7.360;2023-05-07T21:23:04;13.40;99.90
39401;DHT22;54391;50.000;7.360;2023-05-07T21:25:32;13.40;99.90
39401;DHT22;54391;50.000;7.360;2023-05-07T21:28:04;13.30;99.90
39401;DHT22;54391;50.000;7.360;2023-05-07T21:30:31;13.20;99.90
39401;DHT22;54391;50.000;7.360;2023-05-07T21:35:28;13.10;99.90
39401;DHT22;54391;50.000;7.360;2023-05-07T21:40:22;13.00;99.90
39401;DHT22;54391;50.000;7.360;2023-05-07T21:45:18;13.00;99.90
39401;DHT22;54391;50.000;7.360;2023-05-07T21:50:13;13.10;99.90
39401;DHT22;54391;50.000;7.360;2023-05-07T21:52:40;13.10;99.90
39401;DHT22;54391;50.000;7.360;2023-05-07T21:55:08;13.10;99.90
39401;DHT22;54391;50.000;7.360;2023-05-07T21:57:35;13.00;99.90
39401;DHT22;54391;50.000;7.360;2023-05-07T22:00:03;13.00;99.90
39401;DHT22;54391;50.000;7.360;2023-05-07T22:05:00;13.00;99.90
39401;DHT22;54391;50.000;7.360;2023-05-07T22:07:27;13.00;99.90
39401;DHT22;54391;50.000;7.360;2023-05-07T22:12:22;13.00;99.90
39401;DHT22;54391;50.000;7.360;2023-05-07T22:14:49;12.90;99.90
39401;DHT22;54391;50.000;7.360;2023-05-07T22:17:16;12.90;99.90
39401;DHT22;54391;50.000;7.360;2023-05-07T22:19:44;12.90;99.90
39401;DHT22;54391;50.000;7.360;2023-05-07T22:22:11;13.00;99.90
39401;DHT22;54391;50.000;7.360;2023-05-07T22:24:38;12.90;99.90
39401;DHT22;54391;50.000;7.360;2023-05-07T22:27:05;12.90;99.90
39401;DHT22;54391;50.000;7.360;2023-05-07T22:34:28;12.80;99.90
39401;DHT22;54391;50.000;7.360;2023-05-07T23:28:54;12.70;99.90
39401;DHT22;54391;50.000;7.360;2023-05-07T23:33:49;12.70;99.90
39401;DHT22;54391;50.000;7.360;2023-05-07T23:38:43;12.70;99.90
39401;DHT22;54391;50.000;7.360;2023-05-07T23:41:11;12.70;99.90
39401;DHT22;54391;50.000;7.360;2023-05-07T23:43:39;12.60;99.90
39401;DHT22;54391;50.000;7.360;2023-05-07T23:48:34;12.60;99.90
39401;DHT22;54391;50.000;7.360;2023-05-07T23:51:01;13.50;99.90
39401;DHT22;54391;50.000;7.360;2023-05-07T23:53:28;12.60;99.90
39401;DHT22;54391;50.000;7.360;2023-05-07T23:58:22;12.70;99.90
